Post, Oregon
Current Conditions -  °F | °C
As of 6:55 PM on Monday 22 Dec 2014 (Local Time) from KS39 Reporting Station
Broken Clouds Broken Clouds  
Wind Chill: 41°   Ceiling: 8000
Heat Index: 41°   Visibility: 10mi
Dew Point: 37°   Wind: 0mph
Humidity: 87%   Direction: NA
Pressure: 30.33"   Gusts: NA
Location:  44.16°N, 120.49°W
Report Text: KS39 230255Z AUTO 00000KT 10SM BKN080 BKN090 05/03 A3033 RMK AO2
Loading
Personal Weather Stations






























Interactive Weather Map New forecast layout! Learn more

10-Day Weather Forecast

Advertisements
Track Severe Weather on mobile